sensor_id;sensor_type;location;lat;lon;timestamp;pressure;altitude;pressure_sealevel;temperature;humidity
29045;BME280;16133;49.486;12.176;2022-12-04T00:01:19;97161.44;;;0.24;100.00
29045;BME280;16133;49.486;12.176;2022-12-04T00:03:45;97157.06;;;0.25;100.00
29045;BME280;16133;49.486;12.176;2022-12-04T00:06:17;97163.69;;;0.29;100.00
29045;BME280;16133;49.486;12.176;2022-12-04T00:08:44;97156.81;;;0.28;100.00
29045;BME280;16133;49.486;12.176;2022-12-04T00:11:11;97161.34;;;0.26;100.00
29045;BME280;16133;49.486;12.176;2022-12-04T00:13:37;97159.78;;;0.23;100.00
29045;BME280;16133;49.486;12.176;2022-12-04T00:16:04;97151.25;;;0.21;100.00
29045;BME280;16133;49.486;12.176;2022-12-04T00:18:29;97157.66;;;0.17;100.00
29045;BME280;16133;49.486;12.176;2022-12-04T00:20:55;97150.34;;;0.11;100.00
29045;BME280;16133;49.486;12.176;2022-12-04T00:23:20;97157.78;;;0.05;100.00
29045;BME280;16133;49.486;12.176;2022-12-04T00:25:46;97152.75;;;-0.08;100.00
29045;BME280;16133;49.486;12.176;2022-12-04T00:28:17;97159.84;;;-0.21;100.00
29045;BME280;16133;49.486;12.176;2022-12-04T00:30:44;97158.91;;;-0.31;100.00
29045;BME280;16133;49.486;12.176;2022-12-04T00:33:11;97157.13;;;-0.31;100.00
29045;BME280;16133;49.486;12.176;2022-12-04T00:35:37;97151.78;;;-0.29;100.00
29045;BME280;16133;49.486;12.176;2022-12-04T00:38:02;97152.88;;;-0.32;100.00
29045;BME280;16133;49.486;12.176;2022-12-04T00:40:28;97149.53;;;-0.34;100.00
29045;BME280;16133;49.486;12.176;2022-12-04T00:42:53;97126.06;;;-0.45;100.00
29045;BME280;16133;49.486;12.176;2022-12-04T00:45:19;97131.66;;;-0.38;100.00
29045;BME280;16133;49.486;12.176;2022-12-04T00:47:44;97131.88;;;-0.30;100.00
29045;BME280;16133;49.486;12.176;2022-12-04T00:50:10;97127.13;;;-0.25;100.00
29045;BME280;16133;49.486;12.176;2022-12-04T00:52:35;97113.63;;;-0.30;100.00
29045;BME280;16133;49.486;12.176;2022-12-04T00:55:01;97098.72;;;-0.39;100.00
29045;BME280;16133;49.486;12.176;2022-12-04T00:57:26;97113.41;;;-0.38;100.00
29045;BME280;16133;49.486;12.176;2022-12-04T00:59:51;97110.09;;;-0.40;100.00
29045;BME280;16133;49.486;12.176;2022-12-04T01:02:17;97092.78;;;-0.41;100.00
29045;BME280;16133;49.486;12.176;2022-12-04T01:04:42;97099.56;;;-0.39;100.00
29045;BME280;16133;49.486;12.176;2022-12-04T01:07:07;97100.25;;;-0.37;100.00
29045;BME280;16133;49.486;12.176;2022-12-04T01:09:33;97107.00;;;-0.34;100.00
29045;BME280;16133;49.486;12.176;2022-12-04T01:11:58;97094.94;;;-0.35;100.00
29045;BME280;16133;49.486;12.176;2022-12-04T01:14:24;97089.22;;;-0.29;100.00
29045;BME280;16133;49.486;12.176;2022-12-04T01:16:49;97088.16;;;-0.27;100.00
29045;BME280;16133;49.486;12.176;2022-12-04T01:19:14;97096.59;;;-0.23;100.00
29045;BME280;16133;49.486;12.176;2022-12-04T01:21:40;97092.06;;;-0.21;100.00
29045;BME280;16133;49.486;12.176;2022-12-04T01:24:06;97086.84;;;-0.21;100.00
29045;BME280;16133;49.486;12.176;2022-12-04T01:26:31;97077.34;;;-0.22;100.00
29045;BME280;16133;49.486;12.176;2022-12-04T01:28:57;97088.16;;;-0.27;100.00
29045;BME280;16133;49.486;12.176;2022-12-04T01:31:22;97083.53;;;-0.34;100.00
29045;BME280;16133;49.486;12.176;2022-12-04T01:33:48;97080.94;;;-0.45;100.00
29045;BME280;16133;49.486;12.176;2022-12-04T01:36:17;97084.28;;;-0.55;100.00
29045;BME280;16133;49.486;12.176;2022-12-04T01:38:43;97091.28;;;-0.66;100.00
29045;BME280;16133;49.486;12.176;2022-12-04T01:41:11;97089.59;;;-0.78;100.00
29045;BME280;16133;49.486;12.176;2022-12-04T01:43:38;97098.69;;;-0.84;100.00
29045;BME280;16133;49.486;12.176;2022-12-04T01:46:04;97100.13;;;-0.91;100.00
29045;BME280;16133;49.486;12.176;2022-12-04T01:48:43;97104.97;;;-0.98;100.00
29045;BME280;16133;49.486;12.176;2022-12-04T01:51:17;97104.03;;;-1.08;100.00
29045;BME280;16133;49.486;12.176;2022-12-04T01:53:49;97104.81;;;-1.18;100.00
29045;BME280;16133;49.486;12.176;2022-12-04T01:56:17;97107.03;;;-1.25;100.00
29045;BME280;16133;49.486;12.176;2022-12-04T01:58:46;97110.13;;;-1.31;100.00
29045;BME280;16133;49.486;12.176;2022-12-04T02:01:14;97105.94;;;-1.33;100.00
29045;BME280;16133;49.486;12.176;2022-12-04T02:03:40;97108.44;;;-1.32;100.00
29045;BME280;16133;49.486;12.176;2022-12-04T02:06:05;97095.19;;;-1.29;100.00
29045;BME280;16133;49.486;12.176;2022-12-04T02:08:31;97097.56;;;-1.26;100.00
29045;BME280;16133;49.486;12.176;2022-12-04T02:22:18;97104.75;;;-1.40;100.00
29045;BME280;16133;49.486;12.176;2022-12-04T02:24:52;97109.81;;;-1.50;100.00
29045;BME280;16133;49.486;12.176;2022-12-04T02:30:05;97111.22;;;-1.57;100.00
29045;BME280;16133;49.486;12.176;2022-12-04T02:35:26;97110.81;;;-1.64;100.00
29045;BME280;16133;49.486;12.176;2022-12-04T02:37:57;97111.03;;;-1.67;100.00
29045;BME280;16133;49.486;12.176;2022-12-04T02:40:33;97099.09;;;-1.69;100.00
29045;BME280;16133;49.486;12.176;2022-12-04T02:45:37;97106.94;;;-1.82;100.00
29045;BME280;16133;49.486;12.176;2022-12-04T02:48:06;97108.00;;;-1.84;100.00
29045;BME280;16133;49.486;12.176;2022-12-04T02:50:36;97108.09;;;-1.86;100.00
29045;BME280;16133;49.486;12.176;2022-12-04T02:53:08;97099.59;;;-1.88;100.00
29045;BME280;16133;49.486;12.176;2022-12-04T02:55:39;97098.03;;;-1.90;100.00
29045;BME280;16133;49.486;12.176;2022-12-04T02:58:11;97095.56;;;-1.92;100.00
29045;BME280;16133;49.486;12.176;2022-12-04T03:00:40;97087.03;;;-1.94;100.00
29045;BME280;16133;49.486;12.176;2022-12-04T03:03:10;97082.91;;;-1.97;100.00
29045;BME280;16133;49.486;12.176;2022-12-04T03:05:42;97087.25;;;-1.97;100.00
29045;BME280;16133;49.486;12.176;2022-12-04T03:08:14;97080.63;;;-2.01;100.00
29045;BME280;16133;49.486;12.176;2022-12-04T03:10:46;97074.91;;;-2.06;100.00
29045;BME280;16133;49.486;12.176;2022-12-04T03:13:18;97075.59;;;-2.15;100.00
29045;BME280;16133;49.486;12.176;2022-12-04T03:15:57;97076.75;;;-2.19;100.00
29045;BME280;16133;49.486;12.176;2022-12-04T03:18:33;97070.19;;;-2.25;100.00
29045;BME280;16133;49.486;12.176;2022-12-04T03:21:07;97066.06;;;-2.27;100.00
29045;BME280;16133;49.486;12.176;2022-12-04T03:23:42;97069.81;;;-2.31;100.00
29045;BME280;16133;49.486;12.176;2022-12-04T03:26:14;97070.66;;;-2.31;100.00
29045;BME280;16133;49.486;12.176;2022-12-04T03:34:55;97053.44;;;-2.45;100.00
29045;BME280;16133;49.486;12.176;2022-12-04T03:40:40;97047.22;;;-2.42;100.00
29045;BME280;16133;49.486;12.176;2022-12-04T03:43:13;97017.22;;;-2.59;100.00
29045;BME280;16133;49.486;12.176;2022-12-04T03:51:31;97020.63;;;-2.46;100.00
29045;BME280;16133;49.486;12.176;2022-12-04T03:56:38;97014.19;;;-2.53;100.00
29045;BME280;16133;49.486;12.176;2022-12-04T03:59:19;97021.16;;;-2.53;100.00
29045;BME280;16133;49.486;12.176;2022-12-04T04:01:48;97017.84;;;-2.55;100.00
29045;BME280;16133;49.486;12.176;2022-12-04T04:04:19;97020.53;;;-2.57;100.00
29045;BME280;16133;49.486;12.176;2022-12-04T04:06:51;97010.25;;;-2.58;100.00
29045;BME280;16133;49.486;12.176;2022-12-04T04:09:23;97012.03;;;-2.59;100.00
29045;BME280;16133;49.486;12.176;2022-12-04T04:11:54;97012.97;;;-2.60;100.00
29045;BME280;16133;49.486;12.176;2022-12-04T04:15:14;97011.50;;;-2.64;100.00
29045;BME280;16133;49.486;12.176;2022-12-04T04:17:37;97005.06;;;-2.58;100.00
29045;BME280;16133;49.486;12.176;2022-12-04T04:20:28;96999.09;;;-2.48;100.00
29045;BME280;16133;49.486;12.176;2022-12-04T04:23:15;96988.53;;;-2.33;100.00
29045;BME280;16133;49.486;12.176;2022-12-04T04:26:02;96978.94;;;-2.20;100.00
29045;BME280;16133;49.486;12.176;2022-12-04T04:28:34;96960.31;;;-2.03;100.00
29045;BME280;16133;49.486;12.176;2022-12-04T04:33:35;96931.81;;;-1.59;100.00
29045;BME280;16133;49.486;12.176;2022-12-04T04:36:14;96922.38;;;-1.37;100.00
29045;BME280;16133;49.486;12.176;2022-12-04T04:38:47;96912.09;;;-1.28;100.00
29045;BME280;16133;49.486;12.176;2022-12-04T04:41:18;96906.53;;;-1.12;100.00
29045;BME280;16133;49.486;12.176;2022-12-04T04:46:18;96902.16;;;-1.12;100.00
29045;BME280;16133;49.486;12.176;2022-12-04T04:48:51;96902.84;;;-1.21;100.00
29045;BME280;16133;49.486;12.176;2022-12-04T04:51:19;96903.94;;;-1.23;100.00
29045;BME280;16133;49.486;12.176;2022-12-04T04:53:47;96901.28;;;-0.90;100.00
29045;BME280;16133;49.486;12.176;2022-12-04T04:56:14;96900.34;;;-0.89;100.00
29045;BME280;16133;49.486;12.176;2022-12-04T04:58:40;96887.53;;;-0.92;100.00
29045;BME280;16133;49.486;12.176;2022-12-04T05:01:09;96892.41;;;-0.99;100.00
29045;BME280;16133;49.486;12.176;2022-12-04T05:03:35;96885.91;;;-0.93;100.00
29045;BME280;16133;49.486;12.176;2022-12-04T05:06:01;96889.41;;;-0.83;100.00
29045;BME280;16133;49.486;12.176;2022-12-04T05:08:26;96889.16;;;-0.80;100.00
29045;BME280;16133;49.486;12.176;2022-12-04T05:10:52;96888.44;;;-0.71;100.00
29045;BME280;16133;49.486;12.176;2022-12-04T05:13:18;96902.75;;;-0.76;100.00
29045;BME280;16133;49.486;12.176;2022-12-04T05:16:04;96906.94;;;-0.85;100.00
29045;BME280;16133;49.486;12.176;2022-12-04T05:18:31;96913.31;;;-0.78;100.00
29045;BME280;16133;49.486;12.176;2022-12-04T05:20:57;96915.94;;;-0.78;100.00
29045;BME280;16133;49.486;12.176;2022-12-04T05:23:22;96891.56;;;-0.99;100.00
29045;BME280;16133;49.486;12.176;2022-12-04T05:25:48;96918.78;;;-0.92;100.00
29045;BME280;16133;49.486;12.176;2022-12-04T05:28:14;96933.13;;;-0.98;100.00
29045;BME280;16133;49.486;12.176;2022-12-04T05:30:39;96934.81;;;-1.08;100.00
29045;BME280;16133;49.486;12.176;2022-12-04T05:33:05;96941.31;;;-1.13;100.00
29045;BME280;16133;49.486;12.176;2022-12-04T05:35:30;96938.69;;;-1.24;100.00
29045;BME280;16133;49.486;12.176;2022-12-04T05:37:56;96951.00;;;-1.37;100.00
29045;BME280;16133;49.486;12.176;2022-12-04T05:40:21;96957.25;;;-1.51;100.00
29045;BME280;16133;49.486;12.176;2022-12-04T05:42:47;96965.88;;;-1.62;100.00
29045;BME280;16133;49.486;12.176;2022-12-04T05:45:12;96975.09;;;-1.69;100.00
29045;BME280;16133;49.486;12.176;2022-12-04T05:47:41;96998.09;;;-1.75;100.00
29045;BME280;16133;49.486;12.176;2022-12-04T05:50:08;96998.81;;;-1.84;100.00
29045;BME280;16133;49.486;12.176;2022-12-04T05:52:35;97011.78;;;-1.96;100.00
29045;BME280;16133;49.486;12.176;2022-12-04T05:55:00;97012.94;;;-2.00;100.00
29045;BME280;16133;49.486;12.176;2022-12-04T05:57:26;97023.06;;;-2.08;100.00
29045;BME280;16133;49.486;12.176;2022-12-04T05:59:52;97019.25;;;-2.15;100.00
29045;BME280;16133;49.486;12.176;2022-12-04T06:02:17;97024.03;;;-2.21;100.00
29045;BME280;16133;49.486;12.176;2022-12-04T06:04:42;97026.34;;;-2.29;100.00
29045;BME280;16133;49.486;12.176;2022-12-04T06:07:09;97031.16;;;-2.36;100.00
29045;BME280;16133;49.486;12.176;2022-12-04T06:09:35;97031.81;;;-2.45;100.00
29045;BME280;16133;49.486;12.176;2022-12-04T06:12:01;97032.25;;;-2.51;100.00
29045;BME280;16133;49.486;12.176;2022-12-04T06:14:26;97038.69;;;-2.57;100.00
29045;BME280;16133;49.486;12.176;2022-12-04T06:16:51;97026.38;;;-2.66;100.00
29045;BME280;16133;49.486;12.176;2022-12-04T06:19:18;97038.56;;;-2.43;100.00
29045;BME280;16133;49.486;12.176;2022-12-04T06:21:46;97037.84;;;-2.45;100.00
29045;BME280;16133;49.486;12.176;2022-12-04T06:24:14;97032.50;;;-2.54;100.00
29045;BME280;16133;49.486;12.176;2022-12-04T06:26:40;97034.78;;;-2.62;100.00
29045;BME280;16133;49.486;12.176;2022-12-04T06:29:05;97032.72;;;-2.70;100.00
29045;BME280;16133;49.486;12.176;2022-12-04T06:31:31;97024.56;;;-2.76;100.00
29045;BME280;16133;49.486;12.176;2022-12-04T06:33:57;97027.47;;;-2.81;100.00
29045;BME280;16133;49.486;12.176;2022-12-04T06:36:23;97036.41;;;-2.85;100.00
29045;BME280;16133;49.486;12.176;2022-12-04T06:38:50;97038.06;;;-2.84;100.00
29045;BME280;16133;49.486;12.176;2022-12-04T06:41:18;97026.09;;;-2.86;100.00
29045;BME280;16133;49.486;12.176;2022-12-04T06:43:44;97023.63;;;-2.88;100.00
29045;BME280;16133;49.486;12.176;2022-12-04T06:46:15;97015.84;;;-2.88;100.00
29045;BME280;16133;49.486;12.176;2022-12-04T06:48:41;97020.00;;;-2.85;100.00
29045;BME280;16133;49.486;12.176;2022-12-04T06:51:12;97012.91;;;-2.83;100.00
29045;BME280;16133;49.486;12.176;2022-12-04T06:53:38;97006.19;;;-2.86;100.00
29045;BME280;16133;49.486;12.176;2022-12-04T06:56:06;97005.34;;;-2.86;100.00
29045;BME280;16133;49.486;12.176;2022-12-04T06:58:31;97011.38;;;-2.86;100.00
29045;BME280;16133;49.486;12.176;2022-12-04T07:00:57;97002.97;;;-2.90;100.00
29045;BME280;16133;49.486;12.176;2022-12-04T07:03:24;97003.81;;;-2.89;100.00
29045;BME280;16133;49.486;12.176;2022-12-04T07:05:49;97004.09;;;-2.81;100.00
29045;BME280;16133;49.486;12.176;2022-12-04T07:08:16;97005.53;;;-2.77;100.00
29045;BME280;16133;49.486;12.176;2022-12-04T07:10:41;96993.03;;;-2.72;100.00
29045;BME280;16133;49.486;12.176;2022-12-04T07:13:07;96985.78;;;-2.67;100.00
29045;BME280;16133;49.486;12.176;2022-12-04T07:15:34;96983.78;;;-2.63;100.00
29045;BME280;16133;49.486;12.176;2022-12-04T07:18:00;96979.94;;;-2.58;100.00
29045;BME280;16133;49.486;12.176;2022-12-04T07:20:26;96972.19;;;-2.47;100.00
29045;BME280;16133;49.486;12.176;2022-12-04T07:22:51;96977.34;;;-2.34;100.00
29045;BME280;16133;49.486;12.176;2022-12-04T07:25:17;96975.41;;;-2.19;100.00
29045;BME280;16133;49.486;12.176;2022-12-04T07:27:43;96975.78;;;-2.13;100.00
29045;BME280;16133;49.486;12.176;2022-12-04T07:30:09;96969.22;;;-1.95;100.00
29045;BME280;16133;49.486;12.176;2022-12-04T07:32:35;96959.94;;;-1.75;100.00
29045;BME280;16133;49.486;12.176;2022-12-04T07:35:01;96948.00;;;-1.66;100.00
29045;BME280;16133;49.486;12.176;2022-12-04T07:37:26;96942.34;;;-1.60;100.00
29045;BME280;16133;49.486;12.176;2022-12-04T07:39:51;96928.06;;;-1.55;100.00
29045;BME280;16133;49.486;12.176;2022-12-04T07:42:18;96928.53;;;-1.50;100.00
29045;BME280;16133;49.486;12.176;2022-12-04T07:44:43;96916.91;;;-1.46;100.00
29045;BME280;16133;49.486;12.176;2022-12-04T07:47:09;96918.94;;;-1.38;100.00
29045;BME280;16133;49.486;12.176;2022-12-04T07:49:34;96924.16;;;-1.27;100.00
29045;BME280;16133;49.486;12.176;2022-12-04T07:52:00;96912.44;;;-1.21;100.00
29045;BME280;16133;49.486;12.176;2022-12-04T07:54:25;96915.59;;;-1.07;100.00
29045;BME280;16133;49.486;12.176;2022-12-04T07:56:50;96907.56;;;-0.92;100.00
29045;BME280;16133;49.486;12.176;2022-12-04T07:59:16;96897.56;;;-0.76;100.00
29045;BME280;16133;49.486;12.176;2022-12-04T08:01:41;96891.25;;;-0.63;100.00
29045;BME280;16133;49.486;12.176;2022-12-04T08:04:09;96889.06;;;-0.46;100.00
29045;BME280;16133;49.486;12.176;2022-12-04T08:06:35;96891.38;;;-0.32;100.00
29045;BME280;16133;49.486;12.176;2022-12-04T08:09:00;96885.94;;;-0.09;100.00
29045;BME280;16133;49.486;12.176;2022-12-04T08:11:27;96888.59;;;0.01;100.00
29045;BME280;16133;49.486;12.176;2022-12-04T08:13:57;96881.16;;;0.17;100.00
29045;BME280;16133;49.486;12.176;2022-12-04T08:16:23;96879.03;;;0.32;100.00
29045;BME280;16133;49.486;12.176;2022-12-04T08:18:49;96880.06;;;0.50;100.00
29045;BME280;16133;49.486;12.176;2022-12-04T08:21:18;96885.66;;;0.66;100.00
29045;BME280;16133;49.486;12.176;2022-12-04T08:23:48;96887.91;;;0.80;100.00
29045;BME280;16133;49.486;12.176;2022-12-04T08:26:14;96887.66;;;0.93;100.00
29045;BME280;16133;49.486;12.176;2022-12-04T08:28:40;96883.03;;;1.06;100.00
29045;BME280;16133;49.486;12.176;2022-12-04T08:31:08;96880.97;;;1.19;100.00
29045;BME280;16133;49.486;12.176;2022-12-04T08:33:37;96881.28;;;1.35;100.00
29045;BME280;16133;49.486;12.176;2022-12-04T08:36:08;96873.03;;;1.50;100.00
29045;BME280;16133;49.486;12.176;2022-12-04T08:38:34;96872.50;;;1.65;100.00
29045;BME280;16133;49.486;12.176;2022-12-04T08:41:00;96855.59;;;1.79;100.00
29045;BME280;16133;49.486;12.176;2022-12-04T08:43:26;96850.78;;;1.84;100.00
29045;BME280;16133;49.486;12.176;2022-12-04T08:46:00;96866.69;;;2.00;100.00
29045;BME280;16133;49.486;12.176;2022-12-04T08:48:27;96864.91;;;2.10;100.00
29045;BME280;16133;49.486;12.176;2022-12-04T08:50:53;96863.66;;;2.14;100.00
29045;BME280;16133;49.486;12.176;2022-12-04T08:53:19;96870.94;;;2.20;100.00
29045;BME280;16133;49.486;12.176;2022-12-04T08:55:44;96873.28;;;2.23;100.00
29045;BME280;16133;49.486;12.176;2022-12-04T08:58:10;96877.97;;;2.29;100.00
29045;BME280;16133;49.486;12.176;2022-12-04T09:00:36;96873.09;;;2.34;100.00
29045;BME280;16133;49.486;12.176;2022-12-04T09:03:01;96876.97;;;2.40;100.00
29045;BME280;16133;49.486;12.176;2022-12-04T09:05:28;96883.56;;;2.44;100.00
29045;BME280;16133;49.486;12.176;2022-12-04T09:07:53;96880.38;;;2.50;100.00
29045;BME280;16133;49.486;12.176;2022-12-04T09:10:19;96874.59;;;2.47;100.00
29045;BME280;16133;49.486;12.176;2022-12-04T09:12:44;96880.78;;;2.46;100.00
29045;BME280;16133;49.486;12.176;2022-12-04T09:15:10;96882.16;;;2.50;100.00
29045;BME280;16133;49.486;12.176;2022-12-04T09:17:36;96887.38;;;2.50;100.00
29045;BME280;16133;49.486;12.176;2022-12-04T09:20:06;96887.25;;;2.51;100.00
29045;BME280;16133;49.486;12.176;2022-12-04T09:22:33;96888.09;;;2.52;100.00
29045;BME280;16133;49.486;12.176;2022-12-04T09:24:59;96894.81;;;2.54;100.00
29045;BME280;16133;49.486;12.176;2022-12-04T09:27:24;96891.78;;;2.59;100.00
29045;BME280;16133;49.486;12.176;2022-12-04T09:29:50;96905.00;;;2.67;100.00
29045;BME280;16133;49.486;12.176;2022-12-04T09:32:15;96908.03;;;2.72;100.00
29045;BME280;16133;49.486;12.176;2022-12-04T09:34:40;96910.72;;;2.80;100.00
29045;BME280;16133;49.486;12.176;2022-12-04T09:37:06;96918.03;;;2.86;100.00
29045;BME280;16133;49.486;12.176;2022-12-04T09:39:31;96914.34;;;2.79;100.00
29045;BME280;16133;49.486;12.176;2022-12-04T09:42:19;96937.94;;;3.06;100.00
29045;BME280;16133;49.486;12.176;2022-12-04T09:45:09;96945.81;;;3.06;100.00
29045;BME280;16133;49.486;12.176;2022-12-04T09:47:42;96928.53;;;3.13;100.00
29045;BME280;16133;49.486;12.176;2022-12-04T09:53:01;96945.56;;;3.27;100.00
29045;BME280;16133;49.486;12.176;2022-12-04T09:55:31;96964.00;;;3.35;100.00
29045;BME280;16133;49.486;12.176;2022-12-04T09:58:02;96968.72;;;3.31;100.00
29045;BME280;16133;49.486;12.176;2022-12-04T10:00:29;96989.81;;;3.40;100.00
29045;BME280;16133;49.486;12.176;2022-12-04T10:08:41;97011.22;;;3.62;100.00
29045;BME280;16133;49.486;12.176;2022-12-04T10:24:36;97009.84;;;3.85;100.00
29045;BME280;16133;49.486;12.176;2022-12-04T10:27:13;97034.09;;;3.97;100.00
29045;BME280;16133;49.486;12.176;2022-12-04T10:29:42;97022.97;;;4.03;100.00
29045;BME280;16133;49.486;12.176;2022-12-04T10:32:24;97018.50;;;4.13;100.00
29045;BME280;16133;49.486;12.176;2022-12-04T10:34:53;97009.88;;;4.21;100.00
29045;BME280;16133;49.486;12.176;2022-12-04T10:37:21;97003.72;;;4.30;100.00
29045;BME280;16133;49.486;12.176;2022-12-04T10:39:54;97012.94;;;4.34;100.00
29045;BME280;16133;49.486;12.176;2022-12-04T10:42:36;97013.72;;;4.44;100.00
29045;BME280;16133;49.486;12.176;2022-12-04T10:45:06;97007.63;;;4.44;100.00
29045;BME280;16133;49.486;12.176;2022-12-04T10:47:33;97002.06;;;4.47;100.00
29045;BME280;16133;49.486;12.176;2022-12-04T10:50:11;96986.97;;;4.49;100.00
29045;BME280;16133;49.486;12.176;2022-12-04T10:52:37;96982.19;;;4.44;100.00
29045;BME280;16133;49.486;12.176;2022-12-04T10:55:02;96991.63;;;4.55;100.00
29045;BME280;16133;49.486;12.176;2022-12-04T10:57:54;97002.25;;;4.71;100.00
29045;BME280;16133;49.486;12.176;2022-12-04T11:02:52;97006.09;;;4.59;100.00
29045;BME280;16133;49.486;12.176;2022-12-04T11:05:28;97001.75;;;4.50;100.00
29045;BME280;16133;49.486;12.176;2022-12-04T11:07:56;96994.22;;;4.72;100.00
29045;BME280;16133;49.486;12.176;2022-12-04T11:10:38;96994.97;;;4.65;100.00
29045;BME280;16133;49.486;12.176;2022-12-04T11:13:16;97000.41;;;4.63;100.00
29045;BME280;16133;49.486;12.176;2022-12-04T11:15:44;97003.22;;;4.70;100.00
29045;BME280;16133;49.486;12.176;2022-12-04T11:20:51;96993.69;;;4.69;100.00
29045;BME280;16133;49.486;12.176;2022-12-04T11:23:17;96985.22;;;4.75;100.00
29045;BME280;16133;49.486;12.176;2022-12-04T11:25:48;96982.53;;;4.67;100.00
29045;BME280;16133;49.486;12.176;2022-12-04T11:28:26;96966.38;;;4.62;100.00
29045;BME280;16133;49.486;12.176;2022-12-04T11:30:57;96964.53;;;4.80;100.00
29045;BME280;16133;49.486;12.176;2022-12-04T11:33:37;96970.56;;;4.72;100.00
29045;BME280;16133;49.486;12.176;2022-12-04T11:36:18;96958.16;;;4.82;100.00
29045;BME280;16133;49.486;12.176;2022-12-04T11:38:45;96954.81;;;4.98;100.00
29045;BME280;16133;49.486;12.176;2022-12-04T11:41:24;96961.19;;;5.29;100.00
29045;BME280;16133;49.486;12.176;2022-12-04T11:43:49;96966.81;;;5.35;100.00
29045;BME280;16133;49.486;12.176;2022-12-04T11:46:21;96968.31;;;5.45;100.00
29045;BME280;16133;49.486;12.176;2022-12-04T11:48:47;96978.41;;;5.58;100.00
29045;BME280;16133;49.486;12.176;2022-12-04T12:00:11;96971.13;;;6.02;100.00
29045;BME280;16133;49.486;12.176;2022-12-04T12:03:14;96967.72;;;6.17;100.00
29045;BME280;16133;49.486;12.176;2022-12-04T12:08:45;96981.38;;;6.29;100.00
29045;BME280;16133;49.486;12.176;2022-12-04T12:11:26;96968.41;;;6.44;100.00
29045;BME280;16133;49.486;12.176;2022-12-04T12:22:11;96962.06;;;5.88;100.00
29045;BME280;16133;49.486;12.176;2022-12-04T12:25:03;96952.28;;;5.72;100.00
29045;BME280;16133;49.486;12.176;2022-12-04T12:33:30;96959.44;;;5.46;100.00
29045;BME280;16133;49.486;12.176;2022-12-04T12:36:12;96943.97;;;5.35;100.00
29045;BME280;16133;49.486;12.176;2022-12-04T12:38:46;96953.25;;;5.13;100.00
29045;BME280;16133;49.486;12.176;2022-12-04T12:41:20;96960.28;;;5.13;100.00
29045;BME280;16133;49.486;12.176;2022-12-04T12:43:57;96949.28;;;5.09;100.00
29045;BME280;16133;49.486;12.176;2022-12-04T12:47:04;96953.44;;;5.20;100.00
29045;BME280;16133;49.486;12.176;2022-12-04T12:49:44;96949.56;;;5.06;100.00
29045;BME280;16133;49.486;12.176;2022-12-04T12:57:42;96934.94;;;5.04;100.00
29045;BME280;16133;49.486;12.176;2022-12-04T13:05:25;96930.13;;;4.99;100.00
29045;BME280;16133;49.486;12.176;2022-12-04T13:13:23;96922.16;;;4.83;100.00
29045;BME280;16133;49.486;12.176;2022-12-04T13:16:03;96915.09;;;4.83;100.00
29045;BME280;16133;49.486;12.176;2022-12-04T13:18:35;96919.94;;;4.96;100.00
29045;BME280;16133;49.486;12.176;2022-12-04T13:21:04;96915.38;;;4.98;100.00
29045;BME280;16133;49.486;12.176;2022-12-04T13:29:35;96925.50;;;5.27;100.00
29045;BME280;16133;49.486;12.176;2022-12-04T13:34:50;96925.19;;;5.30;100.00
29045;BME280;16133;49.486;12.176;2022-12-04T13:37:32;96938.81;;;5.25;100.00
29045;BME280;16133;49.486;12.176;2022-12-04T13:42:51;96923.88;;;5.34;100.00
29045;BME280;16133;49.486;12.176;2022-12-04T13:45:35;96925.69;;;5.34;100.00
29045;BME280;16133;49.486;12.176;2022-12-04T13:48:02;96925.09;;;5.48;100.00
29045;BME280;16133;49.486;12.176;2022-12-04T13:50:32;96933.50;;;5.51;100.00
29045;BME280;16133;49.486;12.176;2022-12-04T13:52:59;96935.31;;;5.51;100.00
29045;BME280;16133;49.486;12.176;2022-12-04T14:00:43;96913.28;;;5.52;100.00
29045;BME280;16133;49.486;12.176;2022-12-04T14:03:36;96902.72;;;5.44;100.00
29045;BME280;16133;49.486;12.176;2022-12-04T14:09:00;96904.66;;;5.42;100.00
29045;BME280;16133;49.486;12.176;2022-12-04T14:11:27;96908.47;;;5.39;100.00
29045;BME280;16133;49.486;12.176;2022-12-04T14:13:56;96911.75;;;5.41;100.00
29045;BME280;16133;49.486;12.176;2022-12-04T14:16:35;96903.53;;;5.52;100.00
29045;BME280;16133;49.486;12.176;2022-12-04T14:19:03;96866.28;;;5.15;100.00
29045;BME280;16133;49.486;12.176;2022-12-04T14:21:41;96847.00;;;4.98;100.00
29045;BME280;16133;49.486;12.176;2022-12-04T14:27:00;96865.38;;;4.90;100.00
29045;BME280;16133;49.486;12.176;2022-12-04T14:29:39;96893.88;;;5.11;100.00
29045;BME280;16133;49.486;12.176;2022-12-04T14:32:13;96887.94;;;5.01;100.00
29045;BME280;16133;49.486;12.176;2022-12-04T14:34:39;96874.41;;;4.96;100.00
29045;BME280;16133;49.486;12.176;2022-12-04T14:37:05;96883.41;;;4.85;100.00
29045;BME280;16133;49.486;12.176;2022-12-04T14:39:43;96874.84;;;4.83;100.00
29045;BME280;16133;49.486;12.176;2022-12-04T14:42:26;96858.97;;;4.59;100.00
29045;BME280;16133;49.486;12.176;2022-12-04T14:44:57;96855.59;;;4.49;100.00
29045;BME280;16133;49.486;12.176;2022-12-04T14:50:14;96866.66;;;4.52;100.00
29045;BME280;16133;49.486;12.176;2022-12-04T14:52:49;96861.22;;;4.54;100.00
29045;BME280;16133;49.486;12.176;2022-12-04T14:55:26;96856.25;;;4.43;100.00
29045;BME280;16133;49.486;12.176;2022-12-04T14:57:58;96844.78;;;4.44;100.00
29045;BME280;16133;49.486;12.176;2022-12-04T15:00:52;96853.22;;;4.55;100.00
29045;BME280;16133;49.486;12.176;2022-12-04T15:03:19;96854.19;;;4.54;100.00
29045;BME280;16133;49.486;12.176;2022-12-04T15:05:44;96833.25;;;4.45;100.00
29045;BME280;16133;49.486;12.176;2022-12-04T15:08:11;96856.34;;;4.59;100.00
29045;BME280;16133;49.486;12.176;2022-12-04T15:10:38;96844.97;;;4.50;100.00
29045;BME280;16133;49.486;12.176;2022-12-04T15:13:26;96845.78;;;4.51;100.00
29045;BME280;16133;49.486;12.176;2022-12-04T15:15:53;96849.84;;;4.71;100.00